createdAt,value
2022-09-09T00:01:25.939Z,62.16
2022-09-09T00:04:00.699Z,62.12
2022-09-09T00:06:47.756Z,62.41
2022-09-09T00:09:22.135Z,62.55
2022-09-09T00:12:11.098Z,62.63
2022-09-09T00:14:49.711Z,62.09
2022-09-09T00:17:40.917Z,62.41
2022-09-09T00:20:28.920Z,62.79
2022-09-09T00:23:19.771Z,62.81
2022-09-09T00:26:00.234Z,62.96
2022-09-09T00:28:28.927Z,62.69
2022-09-09T00:30:58.382Z,62.66
2022-09-09T00:33:27.298Z,63.04
2022-09-09T00:35:59.470Z,63.46
2022-09-09T00:38:42.470Z,63.31
2022-09-09T00:41:20.026Z,63.55
2022-09-09T00:43:56.983Z,63.60
2022-09-09T00:46:45.026Z,63.97
2022-09-09T00:49:53.232Z,63.90
2022-09-09T00:52:43.789Z,64.05
2022-09-09T00:55:22.641Z,64.30
2022-09-09T00:57:53.427Z,64.20
2022-09-09T01:00:47.212Z,64.54
2022-09-09T01:03:35.686Z,64.35
2022-09-09T01:06:32.207Z,64.55
2022-09-09T01:09:16.925Z,64.40
2022-09-09T01:11:43.670Z,64.13
2022-09-09T01:14:26.813Z,64.83
2022-09-09T01:17:00.864Z,64.39
2022-09-09T01:19:43.480Z,64.66
2022-09-09T01:22:20.915Z,64.90
2022-09-09T01:25:50.680Z,65.07
2022-09-09T01:28:22.975Z,64.50
2022-09-09T01:30:50.066Z,64.44
2022-09-09T01:33:18.806Z,64.60
2022-09-09T01:35:51.935Z,65.10
2022-09-09T01:38:19.416Z,64.79
2022-09-09T01:40:46.179Z,64.59
2022-09-09T01:43:12.938Z,65.07
2022-09-09T01:45:42.772Z,65.06
2022-09-09T01:48:09.439Z,64.99
2022-09-09T01:50:36.089Z,64.98
2022-09-09T01:53:03.913Z,65.25
2022-09-09T01:55:34.662Z,65.51
2022-09-09T01:58:19.623Z,65.68
2022-09-09T02:01:10.978Z,65.79
2022-09-09T02:03:37.627Z,65.39
2022-09-09T02:06:38.687Z,65.78
2022-09-09T02:09:12.812Z,65.31
2022-09-09T02:11:39.802Z,65.14
2022-09-09T02:14:18.953Z,65.78
2022-09-09T02:16:51.338Z,65.59
2022-09-09T02:19:38.086Z,65.89
2022-09-09T02:22:05.353Z,65.41
2022-09-09T02:24:37.398Z,65.73
2022-09-09T02:27:09.883Z,65.29
2022-09-09T02:29:41.080Z,65.71
2022-09-09T02:32:12.884Z,65.33
2022-09-09T02:34:46.446Z,65.47
2022-09-09T02:37:16.629Z,65.23
2022-09-09T02:39:43.310Z,65.08
2022-09-09T02:42:10.550Z,65.25
2022-09-09T02:44:38.208Z,65.38
2022-09-09T02:47:42.384Z,65.98
2022-09-09T02:50:14.920Z,66.06
2022-09-09T02:53:17.103Z,66.01
2022-09-09T02:55:49.735Z,65.79
2022-09-09T02:58:21.523Z,65.95
2022-09-09T03:00:50.004Z,65.90
2022-09-09T03:03:18.888Z,65.80
2022-09-09T03:05:46.547Z,65.59
2022-09-09T03:08:14.141Z,65.98
2022-09-09T03:10:40.997Z,65.73
2022-09-09T03:13:07.957Z,65.89
2022-09-09T03:15:35.706Z,66.05
2022-09-09T03:18:03.012Z,66.15
2022-09-09T03:20:31.235Z,66.16
2022-09-09T03:23:00.314Z,66.04
2022-09-09T03:25:27.411Z,66.01
2022-09-09T03:27:56.047Z,66.03
2022-09-09T03:30:24.182Z,65.88
2022-09-09T03:32:50.853Z,66.21
2022-09-09T03:35:18.053Z,66.09
2022-09-09T03:37:44.719Z,65.90
2022-09-09T03:40:12.058Z,66.19
2022-09-09T03:42:39.140Z,66.44
2022-09-09T03:45:07.507Z,66.15
2022-09-09T03:47:34.317Z,66.30
2022-09-09T03:50:00.830Z,66.31
2022-09-09T03:52:27.874Z,66.46
2022-09-09T03:54:55.359Z,66.23
2022-09-09T03:57:22.731Z,66.37
2022-09-09T03:59:49.512Z,66.38
2022-09-09T04:02:16.725Z,66.50
2022-09-09T04:04:43.338Z,66.19
2022-09-09T04:07:09.869Z,66.20
2022-09-09T04:09:36.397Z,66.38
2022-09-09T04:12:03.287Z,66.10
2022-09-09T04:14:30.031Z,66.04
2022-09-09T04:16:58.486Z,66.17
2022-09-09T04:19:25.026Z,66.04
2022-09-09T04:21:52.660Z,65.91
2022-09-09T04:24:19.949Z,66.03
2022-09-09T04:26:46.611Z,65.90
2022-09-09T04:29:13.208Z,66.13
2022-09-09T04:31:43.017Z,65.79
2022-09-09T04:34:12.499Z,66.24
2022-09-09T04:36:41.261Z,66.03
2022-09-09T04:39:08.425Z,65.89
2022-09-09T04:41:36.225Z,66.10
2022-09-09T04:44:02.753Z,66.09
2022-09-09T04:46:29.267Z,66.36
2022-09-09T04:48:55.777Z,66.54
2022-09-09T04:51:22.326Z,66.52
2022-09-09T04:53:49.846Z,66.50
2022-09-09T04:56:18.022Z,66.65
2022-09-09T04:58:45.038Z,66.70
2022-09-09T05:01:18.351Z,66.83
2022-09-09T05:03:48.733Z,66.68
2022-09-09T05:06:17.937Z,66.83
2022-09-09T05:08:45.587Z,66.91
2022-09-09T05:11:20.450Z,67.20
2022-09-09T05:13:47.800Z,66.97
2022-09-09T05:16:15.259Z,66.75
2022-09-09T05:18:43.749Z,66.78
2022-09-09T05:21:18.096Z,66.81
2022-09-09T05:23:46.338Z,66.79
2022-09-09T05:26:17.452Z,66.91
2022-09-09T05:28:45.167Z,66.88
2022-09-09T05:31:13.946Z,66.87
2022-09-09T05:33:43.432Z,66.66
2022-09-09T05:36:14.848Z,66.81
2022-09-09T05:38:43.065Z,66.87
2022-09-09T05:41:12.165Z,67.09
2022-09-09T05:43:39.264Z,67.08
2022-09-09T05:46:11.267Z,67.54
2022-09-09T05:48:40.201Z,67.58
2022-09-09T05:51:09.591Z,67.46
2022-09-09T05:53:36.399Z,67.39
2022-09-09T05:56:15.284Z,67.68
2022-09-09T05:58:44.805Z,67.40
2022-09-09T06:01:20.629Z,68.00
2022-09-09T06:03:48.871Z,67.66
2022-09-09T06:06:21.802Z,67.64
2022-09-09T06:08:51.826Z,67.30
2022-09-09T06:11:24.236Z,67.55
2022-09-09T06:13:54.459Z,67.55
2022-09-09T06:16:26.231Z,67.47
2022-09-09T06:18:54.951Z,67.36
2022-09-09T06:21:22.943Z,67.57
2022-09-09T06:23:49.888Z,67.27
2022-09-09T06:26:19.468Z,67.60
2022-09-09T06:28:50.830Z,67.57
2022-09-09T06:31:24.127Z,67.59
2022-09-09T06:33:56.156Z,67.46
2022-09-09T06:36:25.112Z,67.23
2022-09-09T06:38:52.176Z,67.01
2022-09-09T06:41:21.350Z,67.47
2022-09-09T06:43:48.210Z,67.23
2022-09-09T06:46:14.732Z,67.46
2022-09-09T06:48:48.103Z,67.20
2022-09-09T06:51:18.599Z,67.14
2022-09-09T06:53:46.759Z,67.42
2022-09-09T06:56:30.937Z,67.42
2022-09-09T06:58:59.775Z,67.03
2022-09-09T07:01:29.193Z,67.22
2022-09-09T07:03:57.068Z,67.03
2022-09-09T07:06:26.209Z,67.18
2022-09-09T07:08:56.563Z,67.34
2022-09-09T07:11:26.776Z,67.24
2022-09-09T07:13:53.977Z,67.28
2022-09-09T07:16:23.779Z,67.50
2022-09-09T07:18:51.535Z,66.97
2022-09-09T07:21:18.632Z,67.22
2022-09-09T07:23:45.218Z,67.05
2022-09-09T07:26:14.828Z,66.98
2022-09-09T07:28:42.400Z,66.80
2022-09-09T07:31:17.528Z,66.22
2022-09-09T07:33:45.701Z,66.44
2022-09-09T07:36:16.752Z,66.07
2022-09-09T07:38:46.652Z,66.11
2022-09-09T07:41:18.109Z,66.08
2022-09-09T07:43:46.896Z,66.18
2022-09-09T07:46:14.848Z,66.17
2022-09-09T07:48:56.812Z,65.39
2022-09-09T07:51:32.893Z,65.25
2022-09-09T07:54:02.968Z,65.92
2022-09-09T07:56:33.585Z,65.31
2022-09-09T07:59:00.939Z,65.57
2022-09-09T08:01:30.984Z,65.58
2022-09-09T08:04:02.133Z,65.58
2022-09-09T08:06:31.365Z,65.01
2022-09-09T08:08:57.926Z,65.32
2022-09-09T08:11:26.357Z,65.43
2022-09-09T08:13:54.391Z,65.32
2022-09-09T08:16:25.465Z,65.76
2022-09-09T08:18:53.506Z,65.55
2022-09-09T08:21:23.220Z,65.73
2022-09-09T08:23:57.683Z,65.28
2022-09-09T08:26:28.888Z,65.08
2022-09-09T08:28:57.566Z,65.28
2022-09-09T08:31:32.761Z,65.33
2022-09-09T08:34:00.467Z,64.88
2022-09-09T08:36:29.880Z,64.95
2022-09-09T08:38:58.339Z,65.22
2022-09-09T08:41:49.710Z,64.73
2022-09-09T08:44:22.903Z,65.02
2022-09-09T08:46:49.386Z,65.10
2022-09-09T08:49:51.251Z,64.81
2022-09-09T08:52:26.837Z,64.94
2022-09-09T08:54:56.279Z,65.13
2022-09-09T08:57:27.866Z,64.96
2022-09-09T08:59:57.731Z,65.09
2022-09-09T09:02:43.794Z,64.37
2022-09-09T09:05:48.565Z,64.24
2022-09-09T09:08:34.870Z,64.55
2022-09-09T09:11:02.585Z,65.18
2022-09-09T09:13:54.806Z,64.29
2022-09-09T09:16:24.967Z,64.14
2022-09-09T09:18:52.898Z,63.54
2022-09-09T09:21:24.293Z,63.75
2022-09-09T09:24:00.256Z,62.01
2022-09-09T09:26:36.994Z,61.77
2022-09-09T09:29:19.908Z,62.08
2022-09-09T09:31:56.471Z,62.32
2022-09-09T09:34:24.378Z,62.49
2022-09-09T09:36:59.525Z,61.31
2022-09-09T09:42:23.080Z,61.63
2022-09-09T09:44:50.442Z,61.28
2022-09-09T09:47:22.399Z,60.21
2022-09-09T09:49:56.418Z,60.02
2022-09-09T09:52:31.521Z,59.35
2022-09-09T09:55:06.854Z,60.04
2022-09-09T09:57:35.360Z,60.01
2022-09-09T10:00:14.897Z,59.68
2022-09-09T10:02:44.687Z,59.46
2022-09-09T10:05:27.470Z,58.73
2022-09-09T10:08:06.033Z,58.75
2022-09-09T10:10:47.444Z,58.07
2022-09-09T10:13:44.654Z,57.36
2022-09-09T10:16:17.237Z,60.26
2022-09-09T10:18:47.861Z,59.06
2022-09-09T10:21:51.341Z,59.38
2022-09-09T10:24:57.050Z,57.35
2022-09-09T10:27:34.773Z,56.87
2022-09-09T10:30:13.335Z,55.29
2022-09-09T10:33:06.716Z,52.50
2022-09-09T10:35:41.392Z,54.32
2022-09-09T10:38:35.785Z,54.62
2022-09-09T10:41:14.473Z,54.65
2022-09-09T10:43:46.725Z,55.59
2022-09-09T10:46:35.035Z,53.79
2022-09-09T10:49:29.018Z,52.97
2022-09-09T10:52:17.255Z,51.84
2022-09-09T10:55:20.795Z,52.83
2022-09-09T10:57:53.170Z,54.20
2022-09-09T11:00:25.369Z,53.46
2022-09-09T11:03:01.598Z,53.31
2022-09-09T11:05:45.894Z,53.04
2022-09-09T11:08:19.078Z,55.21
2022-09-09T11:10:53.583Z,55.14
2022-09-09T11:13:38.899Z,52.17
2022-09-09T11:16:39.556Z,49.90
2022-09-09T11:19:20.643Z,49.77
2022-09-09T11:21:50.566Z,49.48
2022-09-09T11:24:42.532Z,49.93
2022-09-09T11:27:13.265Z,50.85
2022-09-09T11:29:58.303Z,48.53
2022-09-09T11:32:41.544Z,49.56
2022-09-09T11:35:23.169Z,48.71
2022-09-09T11:38:16.600Z,47.73
2022-09-09T11:40:44.482Z,48.87
2022-09-09T11:43:11.062Z,49.10
2022-09-09T11:45:38.002Z,50.38
2022-09-09T11:48:07.114Z,50.42
2022-09-09T11:50:37.132Z,50.93
2022-09-09T11:53:08.340Z,50.23
2022-09-09T11:55:37.829Z,52.32
2022-09-09T11:58:07.205Z,51.31
2022-09-09T12:00:36.499Z,51.66
2022-09-09T12:03:03.040Z,50.88
2022-09-09T12:05:59.984Z,46.72
2022-09-09T12:08:29.608Z,45.38
2022-09-09T12:11:00.238Z,44.35
2022-09-09T12:13:28.518Z,44.03
2022-09-09T12:16:00.175Z,43.40
2022-09-09T12:18:40.602Z,43.44
2022-09-09T12:21:19.519Z,44.06
2022-09-09T12:23:53.698Z,44.12
2022-09-09T12:26:26.462Z,45.57
2022-09-09T12:29:15.142Z,43.15
2022-09-09T12:32:03.359Z,43.66
2022-09-09T12:34:44.977Z,43.06
2022-09-09T12:37:22.865Z,42.22
2022-09-09T12:39:55.760Z,41.91
2022-09-09T12:42:23.707Z,42.66
2022-09-09T12:44:58.777Z,40.28
2022-09-09T12:47:30.406Z,40.43
2022-09-09T12:49:57.952Z,43.24
2022-09-09T12:52:31.120Z,40.79
2022-09-09T12:55:00.750Z,41.51
2022-09-09T12:57:35.647Z,39.26
2022-09-09T13:00:09.912Z,41.14
2022-09-09T13:02:36.712Z,42.08
2022-09-09T13:05:27.814Z,40.54
2022-09-09T13:08:06.668Z,40.13
2022-09-09T13:10:52.766Z,39.57
2022-09-09T13:13:28.321Z,39.85
2022-09-09T13:16:00.100Z,40.30
2022-09-09T13:18:39.128Z,39.58
2022-09-09T13:21:05.876Z,40.49
2022-09-09T13:23:36.290Z,40.04
2022-09-09T13:26:07.209Z,40.76
2022-09-09T13:28:34.591Z,42.50
2022-09-09T13:31:20.165Z,40.62
2022-09-09T13:33:46.775Z,41.68
2022-09-09T13:36:15.403Z,39.54
2022-09-09T13:39:00.646Z,37.41
2022-09-09T13:41:33.022Z,38.06
2022-09-09T13:44:00.466Z,39.38
2022-09-09T13:46:43.758Z,39.40
2022-09-09T13:49:10.195Z,39.92
2022-09-09T13:51:39.830Z,37.98
2022-09-09T13:54:10.203Z,36.89
2022-09-09T13:56:38.357Z,37.36
2022-09-09T13:59:06.622Z,36.46
2022-09-09T14:01:35.874Z,35.77
2022-09-09T14:04:02.658Z,34.96
2022-09-09T14:06:30.208Z,35.14
2022-09-09T14:08:56.898Z,33.97
2022-09-09T14:11:23.469Z,33.16
2022-09-09T14:13:53.062Z,32.85
2022-09-09T14:16:19.768Z,32.29
2022-09-09T14:18:46.841Z,35.09
2022-09-09T14:21:13.707Z,35.55
2022-09-09T14:23:40.232Z,36.68
2022-09-09T14:26:07.439Z,37.85
2022-09-09T14:31:22.006Z,41.29
2022-09-09T14:33:48.644Z,42.89
2022-09-09T14:36:16.199Z,44.69
2022-09-09T14:38:43.737Z,45.88
2022-09-09T14:41:17.811Z,47.94
2022-09-09T14:43:45.105Z,48.36
2022-09-09T14:46:14.543Z,49.93
2022-09-09T14:48:44.975Z,50.03
2022-09-09T14:51:20.651Z,51.02
2022-09-09T14:53:47.940Z,50.28
2022-09-09T14:56:17.654Z,50.50
2022-09-09T14:58:46.269Z,49.96
2022-09-09T15:01:18.335Z,50.55
2022-09-09T15:03:52.248Z,51.07
2022-09-09T15:06:19.029Z,50.77
2022-09-09T15:08:46.846Z,51.46
2022-09-09T15:11:15.398Z,52.16
2022-09-09T15:13:43.618Z,52.57
2022-09-09T15:16:15.962Z,53.56
2022-09-09T15:18:43.966Z,53.13
2022-09-09T15:21:20.097Z,54.42
2022-09-09T15:23:48.562Z,54.09
2022-09-09T15:26:16.168Z,54.24
2022-09-09T15:28:44.729Z,54.25
2022-09-09T15:31:19.649Z,54.68
2022-09-09T15:34:02.892Z,55.08
2022-09-09T15:36:31.230Z,54.03
2022-09-09T15:38:57.951Z,54.65
2022-09-09T15:41:24.886Z,55.31
2022-09-09T15:43:54.030Z,56.31
2022-09-09T15:46:27.095Z,56.56
2022-09-09T15:48:58.881Z,56.20
2022-09-09T15:51:43.542Z,56.78
2022-09-09T15:54:13.294Z,57.15
2022-09-09T15:56:40.478Z,57.02
2022-09-09T15:59:07.262Z,56.47
2022-09-09T16:01:35.295Z,56.26
2022-09-09T16:04:02.667Z,55.75
2022-09-09T16:06:30.581Z,55.16
2022-09-09T16:08:59.125Z,55.48
2022-09-09T16:11:29.786Z,56.23
2022-09-09T16:13:57.082Z,55.58
2022-09-09T16:16:26.360Z,55.68
2022-09-09T16:18:55.798Z,55.99
2022-09-09T16:21:33.931Z,55.71
2022-09-09T16:24:03.467Z,56.02
2022-09-09T16:26:32.463Z,55.97
2022-09-09T16:29:02.214Z,56.35
2022-09-09T16:31:30.089Z,55.79
2022-09-09T16:33:56.876Z,56.15
2022-09-09T16:36:29.260Z,56.19
2022-09-09T16:38:58.717Z,55.95
2022-09-09T16:41:27.033Z,55.97
2022-09-09T16:43:59.182Z,56.00
2022-09-09T16:46:26.776Z,55.89
2022-09-09T16:48:53.494Z,55.80
2022-09-09T16:51:25.841Z,56.25
2022-09-09T16:53:54.008Z,55.90
2022-09-09T16:56:25.500Z,55.91
2022-09-09T16:58:56.638Z,55.64
2022-09-09T17:01:24.657Z,55.62
2022-09-09T17:04:00.083Z,55.43
2022-09-09T17:06:28.466Z,55.59
2022-09-09T17:08:56.679Z,55.56
2022-09-09T17:11:24.368Z,55.69
2022-09-09T17:13:52.956Z,56.18
2022-09-09T17:16:24.442Z,56.16
2022-09-09T17:18:52.351Z,56.42
2022-09-09T17:21:21.543Z,56.50
2022-09-09T17:23:48.878Z,56.25
2022-09-09T17:26:17.793Z,56.29
2022-09-09T17:28:46.624Z,56.60
2022-09-09T17:31:15.878Z,56.93
2022-09-09T17:33:45.223Z,57.21
2022-09-09T17:36:20.767Z,57.37
2022-09-09T17:38:47.889Z,57.84
2022-09-09T17:41:16.527Z,58.27
2022-09-09T17:43:43.620Z,58.54
2022-09-09T17:46:13.527Z,59.39
2022-09-09T17:48:41.117Z,59.38
2022-09-09T17:51:10.100Z,59.81
2022-09-09T17:53:42.692Z,60.78
2022-09-09T17:56:11.459Z,60.24
2022-09-09T17:58:38.451Z,60.44
2022-09-09T18:01:08.222Z,60.93
2022-09-09T18:03:36.617Z,61.16
2022-09-09T18:06:05.820Z,61.86
2022-09-09T18:08:36.604Z,61.77
2022-09-09T18:11:05.217Z,61.88
2022-09-09T18:13:31.857Z,61.70
2022-09-09T18:15:59.322Z,62.09
2022-09-09T18:18:26.592Z,61.99
2022-09-09T18:21:06.638Z,62.61
2022-09-09T18:23:42.866Z,62.55
2022-09-09T18:26:15.623Z,62.60
2022-09-09T18:28:43.324Z,62.06
2022-09-09T18:31:12.701Z,62.09
2022-09-09T18:33:41.690Z,62.80
2022-09-09T18:36:11.768Z,62.50
2022-09-09T18:38:38.932Z,62.27
2022-09-09T18:41:19.121Z,62.72
2022-09-09T18:43:45.819Z,62.27
2022-09-09T18:46:13.059Z,62.56
2022-09-09T18:48:40.168Z,62.80
2022-09-09T18:51:10.775Z,62.98
2022-09-09T18:53:37.751Z,62.59
2022-09-09T18:56:06.654Z,62.57
2022-09-09T18:58:34.477Z,62.16
2022-09-09T19:01:02.718Z,62.49
2022-09-09T19:03:30.980Z,62.34
2022-09-09T19:06:07.539Z,62.05
2022-09-09T19:08:34.878Z,61.86
2022-09-09T19:11:02.638Z,61.63
2022-09-09T19:13:29.200Z,61.84
2022-09-09T19:15:55.861Z,61.85
2022-09-09T19:18:23.771Z,61.58
2022-09-09T19:20:50.241Z,61.72
2022-09-09T19:23:16.806Z,61.59
2022-09-09T19:25:43.262Z,61.37
2022-09-09T19:28:09.868Z,61.57
2022-09-09T19:30:37.512Z,61.29
2022-09-09T19:33:04.421Z,61.75
2022-09-09T19:35:31.515Z,61.48
2022-09-09T19:37:59.795Z,61.79
2022-09-09T19:40:26.946Z,62.00
2022-09-09T19:42:53.997Z,62.32
2022-09-09T19:45:20.546Z,62.40
2022-09-09T19:47:47.061Z,62.28
2022-09-09T19:50:13.548Z,62.23
2022-09-09T19:52:40.223Z,62.41
2022-09-09T19:55:07.169Z,62.12
2022-09-09T19:57:34.238Z,62.43
2022-09-09T20:00:00.981Z,62.03
2022-09-09T20:02:28.848Z,62.32
2022-09-09T20:04:55.425Z,62.34
2022-09-09T20:07:21.957Z,62.15
2022-09-09T20:09:48.435Z,62.21
2022-09-09T20:12:15.092Z,62.06
2022-09-09T20:14:41.810Z,62.42
2022-09-09T20:17:10.275Z,62.22
2022-09-09T20:19:36.877Z,62.33
2022-09-09T20:22:03.395Z,62.51
2022-09-09T20:24:29.894Z,62.47
2022-09-09T20:26:56.498Z,62.55
2022-09-09T20:29:23.035Z,62.86
2022-09-09T20:31:49.663Z,63.03
2022-09-09T20:34:19.102Z,62.99
2022-09-09T20:36:46.613Z,63.07
2022-09-09T20:39:19.993Z,63.49
2022-09-09T20:41:47.735Z,63.05
2022-09-09T20:44:19.990Z,63.48
2022-09-09T20:46:49.085Z,63.78
2022-09-09T20:49:17.830Z,63.82
2022-09-09T20:51:45.652Z,63.83
2022-09-09T20:54:18.525Z,63.93
2022-09-09T20:56:46.014Z,63.83
2022-09-09T20:59:16.052Z,64.49
2022-09-09T21:01:43.984Z,64.19
2022-09-09T21:04:10.764Z,64.38
2022-09-09T21:06:37.266Z,64.40
2022-09-09T21:09:04.409Z,64.29
2022-09-09T21:11:30.935Z,64.35
2022-09-09T21:13:58.957Z,64.55
2022-09-09T21:16:26.449Z,64.86
2022-09-09T21:18:52.969Z,64.96
2022-09-09T21:21:21.065Z,65.01
2022-09-09T21:23:48.691Z,65.11
2022-09-09T21:26:15.455Z,65.11
2022-09-09T21:28:41.946Z,64.98
2022-09-09T21:31:14.153Z,65.76
2022-09-09T21:33:41.925Z,65.29
2022-09-09T21:36:11.051Z,65.25
2022-09-09T21:38:40.067Z,65.26
2022-09-09T21:41:09.944Z,65.89
2022-09-09T21:43:36.427Z,65.47
2022-09-09T21:46:10.801Z,66.07
2022-09-09T21:48:37.519Z,65.57
2022-09-09T21:51:06.699Z,65.94
2022-09-09T21:53:33.597Z,65.84
2022-09-09T21:56:09.160Z,66.26
2022-09-09T21:58:36.136Z,65.86
2022-09-09T22:01:09.030Z,66.53
2022-09-09T22:03:39.060Z,66.16
2022-09-09T22:06:10.205Z,66.31
2022-09-09T22:08:37.394Z,66.00
2022-09-09T22:11:12.294Z,66.74
2022-09-09T22:13:39.143Z,66.25
2022-09-09T22:16:08.396Z,66.23
2022-09-09T22:18:35.815Z,66.17
2022-09-09T22:21:08.420Z,66.95
2022-09-09T22:23:36.471Z,66.28
2022-09-09T22:26:04.665Z,66.50
2022-09-09T22:28:31.808Z,66.77
2022-09-09T22:30:58.363Z,66.75
2022-09-09T22:33:24.958Z,66.90
2022-09-09T22:35:52.104Z,66.74
2022-09-09T22:38:18.573Z,66.83
2022-09-09T22:40:45.210Z,67.21
2022-09-09T22:43:20.408Z,67.95
2022-09-09T22:45:47.556Z,67.09
2022-09-09T22:48:14.914Z,67.31
2022-09-09T22:50:42.705Z,67.35
2022-09-09T22:53:13.493Z,67.75
2022-09-09T22:55:40.634Z,67.51
2022-09-09T22:58:07.154Z,67.26
2022-09-09T23:00:33.874Z,67.58
2022-09-09T23:03:00.409Z,67.54
2022-09-09T23:05:27.706Z,67.32
2022-09-09T23:07:57.616Z,67.29
2022-09-09T23:10:24.510Z,67.25
2022-09-09T23:12:51.034Z,67.21
2022-09-09T23:15:17.611Z,67.35
2022-09-09T23:17:44.326Z,67.30
2022-09-09T23:20:11.945Z,67.14
2022-09-09T23:22:40.560Z,67.22
2022-09-09T23:25:07.424Z,67.36
2022-09-09T23:27:34.818Z,67.12
2022-09-09T23:30:01.621Z,67.44
2022-09-09T23:32:28.376Z,67.55
2022-09-09T23:34:54.898Z,67.51
2022-09-09T23:37:21.634Z,67.57
2022-09-09T23:39:48.534Z,67.71
2022-09-09T23:42:15.377Z,67.61
2022-09-09T23:44:42.200Z,67.80
2022-09-09T23:47:09.526Z,67.88
2022-09-09T23:49:39.249Z,68.24
2022-09-09T23:52:07.196Z,67.85
2022-09-09T23:54:34.715Z,67.99
2022-09-09T23:57:03.240Z,68.00
2022-09-09T23:59:34.939Z,68.46
